Time;durP1;ratioP1;P1;durP2;ratioP2;P2;SDS_P1;SDS_P2;PMS_P1;PMS_P2;Temp;Humidity;BMP_temperature;BMP_pressure;BME280_temperature;BME280_humidity;BME280_pressure;Samples;Min_cycle;Max_cycle;Signal;HPM_P1;HPM_P2
2022/02/21 00:00:14;;;;;;;28.92;5.13;;;6.30;99.90;;;;;;5086432;28;20051;-63
2022/02/21 00:02:43;;;;;;;20.38;4.72;;;6.20;99.90;;;;;;5087792;28;20067;-58
2022/02/21 00:05:10;;;;;;;23.90;5.03;;;6.20;99.90;;;;;;5070835;28;20040;-57
2022/02/21 00:07:36;;;;;;;21.13;4.22;;;6.20;99.90;;;;;;5048641;28;20094;-55
2022/02/21 00:10:04;;;;;;;17.60;3.17;;;6.20;99.90;;;;;;5097983;28;20051;-60
2022/02/21 00:12:29;;;;;;;26.35;4.07;;;6.10;99.90;;;;;;5091293;28;20043;-56
2022/02/21 00:14:55;;;;;;;18.08;3.45;;;6.10;99.90;;;;;;5091836;28;20055;-60
2022/02/21 00:17:21;;;;;;;14.98;2.60;;;6.10;99.90;;;;;;5109321;28;20492;-57
2022/02/21 00:19:46;;;;;;;18.02;3.88;;;6.00;99.90;;;;;;5090603;28;20587;-60
2022/02/21 00:22:12;;;;;;;17.48;4.07;;;6.00;99.90;;;;;;5074717;28;20047;-60
2022/02/21 00:24:38;;;;;;;14.43;3.28;;;6.00;99.90;;;;;;5093722;28;20075;-62
2022/02/21 00:27:04;;;;;;;12.98;1.70;;;5.90;99.90;;;;;;5091231;28;20481;-63
2022/02/21 00:29:30;;;;;;;20.63;3.45;;;6.00;99.90;;;;;;5107987;28;20043;-54
2022/02/21 00:31:56;;;;;;;4.93;1.40;;;6.10;99.90;;;;;;5101292;28;20052;-54
2022/02/21 00:34:21;;;;;;;14.48;2.25;;;6.10;99.90;;;;;;5091984;28;20390;-67
2022/02/21 00:36:47;;;;;;;11.43;1.55;;;6.10;99.90;;;;;;5109171;28;20046;-64
2022/02/21 00:39:13;;;;;;;13.88;3.05;;;6.10;99.90;;;;;;5109781;28;20364;-58
2022/02/21 00:41:39;;;;;;;11.98;1.35;;;6.20;99.90;;;;;;5092493;28;20036;-60
2022/02/21 00:44:05;;;;;;;14.38;1.88;;;6.20;99.90;;;;;;5089333;28;20032;-56
2022/02/21 00:46:31;;;;;;;28.23;5.70;;;6.30;99.90;;;;;;5101199;28;20508;-52
2022/02/21 00:48:56;;;;;;;14.98;3.03;;;6.30;99.90;;;;;;5101021;28;20039;-59
2022/02/21 00:51:23;;;;;;;10.98;2.58;;;6.40;99.90;;;;;;5101229;28;20039;-52
2022/02/21 00:53:49;;;;;;;36.53;9.65;;;6.40;99.90;;;;;;5101893;28;20039;-58
2022/02/21 00:56:15;;;;;;;30.00;5.38;;;6.40;99.90;;;;;;5096025;28;20390;-57
2022/02/21 00:58:41;;;;;;;33.20;5.47;;;6.40;99.90;;;;;;5069075;28;20132;-54
2022/02/21 01:01:06;;;;;;;41.95;7.97;;;6.40;99.90;;;;;;5071836;28;20138;-52
2022/02/21 01:03:32;;;;;;;24.40;5.38;;;6.40;99.90;;;;;;5101507;28;20552;-50
2022/02/21 01:05:58;;;;;;;20.33;3.35;;;6.40;99.90;;;;;;5090115;28;20089;-56
2022/02/21 01:08:24;;;;;;;29.45;6.13;;;6.30;99.90;;;;;;5093233;28;20040;-52
2022/02/21 01:10:50;;;;;;;30.65;6.90;;;6.30;99.90;;;;;;5108206;28;20039;-59
2022/02/21 01:13:16;;;;;;;23.42;4.47;;;6.30;99.90;;;;;;5095382;28;20078;-53
2022/02/21 01:15:43;;;;;;;13.80;2.40;;;6.30;99.90;;;;;;5100852;28;20096;-50
2022/02/21 01:18:09;;;;;;;39.83;6.80;;;6.20;99.90;;;;;;5108748;28;20042;-57
2022/02/21 01:20:35;;;;;;;14.73;2.85;;;6.20;99.90;;;;;;5071847;28;20052;-60
2022/02/21 01:23:00;;;;;;;25.75;4.90;;;6.20;99.90;;;;;;5098386;28;20051;-57
2022/02/21 01:25:26;;;;;;;28.75;7.97;;;6.20;99.90;;;;;;5096248;28;20422;-53
2022/02/21 01:27:55;;;;;;;32.30;7.13;;;6.30;99.90;;;;;;5084938;28;20063;-66
2022/02/21 01:30:20;;;;;;;32.97;7.55;;;6.20;99.90;;;;;;5066820;28;20406;-52
2022/02/21 01:32:47;;;;;;;49.25;9.48;;;6.20;99.90;;;;;;5080017;28;20056;-51
2022/02/21 01:35:12;;;;;;;41.40;7.78;;;6.10;99.90;;;;;;5058998;28;20051;-57
2022/02/21 01:37:38;;;;;;;25.50;4.97;;;5.80;99.90;;;;;;5086533;28;20603;-57
2022/02/21 01:40:09;;;;;;;45.40;7.82;;;5.80;99.90;;;;;;5075951;28;20068;-57
2022/02/21 01:42:38;;;;;;;30.05;8.80;;;5.80;99.90;;;;;;5075790;28;20032;-53
2022/02/21 01:45:05;;;;;;;36.60;8.90;;;5.90;99.90;;;;;;5083575;28;20047;-53
2022/02/21 01:47:31;;;;;;;34.92;7.13;;;5.90;99.90;;;;;;5079356;28;20044;-63
2022/02/21 01:49:57;;;;;;;43.38;6.93;;;5.90;99.90;;;;;;5082322;28;20093;-60
2022/02/21 01:52:23;;;;;;;33.33;7.32;;;5.80;99.90;;;;;;5082938;28;20050;-59
2022/02/21 01:54:50;;;;;;;38.38;7.75;;;5.80;99.90;;;;;;5072439;28;20179;-59
2022/02/21 01:57:16;;;;;;;41.67;8.38;;;5.70;99.90;;;;;;5066442;28;20048;-56
2022/02/21 01:59:42;;;;;;;32.03;7.25;;;5.70;99.90;;;;;;5059473;28;20507;-60
2022/02/21 02:02:09;;;;;;;39.00;7.20;;;5.70;99.90;;;;;;5062411;28;20048;-63
2022/02/21 02:04:36;;;;;;;10.95;2.22;;;5.60;99.90;;;;;;5064842;28;20453;-62
2022/02/21 02:07:04;;;;;;;29.40;5.60;;;5.70;99.90;;;;;;5066059;28;20045;-57
2022/02/21 02:09:37;;;;;;;28.00;6.55;;;5.80;99.90;;;;;;5073173;28;20042;-53
2022/02/21 02:12:05;;;;;;;22.42;5.60;;;5.80;99.90;;;;;;5086485;28;20056;-64
2022/02/21 02:14:41;;;;;;;28.45;7.60;;;5.90;99.90;;;;;;5086023;28;20052;-54
2022/02/21 02:17:13;;;;;;;23.48;4.95;;;5.90;99.90;;;;;;5085251;28;20055;-60
2022/02/21 02:19:40;;;;;;;23.63;5.55;;;5.80;99.90;;;;;;5084907;28;20318;-63
2022/02/21 02:22:12;;;;;;;34.15;7.00;;;5.80;99.90;;;;;;5076474;28;20176;-48
2022/02/21 02:24:38;;;;;;;31.08;7.68;;;5.80;99.90;;;;;;5075460;28;20525;-49
2022/02/21 02:27:08;;;;;;;28.55;6.72;;;5.60;99.90;;;;;;5084582;28;20111;-48
2022/02/21 02:29:38;;;;;;;27.92;4.10;;;5.60;99.90;;;;;;5075152;28;20054;-67
2022/02/21 02:32:06;;;;;;;23.95;3.88;;;5.60;99.90;;;;;;5110463;28;20055;-57
2022/02/21 02:34:32;;;;;;;42.20;8.05;;;5.60;99.90;;;;;;5110627;28;20050;-59
2022/02/21 02:36:58;;;;;;;29.27;5.90;;;5.60;99.90;;;;;;5111577;28;20103;-56
2022/02/21 02:39:25;;;;;;;26.85;4.85;;;5.60;99.90;;;;;;5098032;28;20047;-55
2022/02/21 02:41:52;;;;;;;25.13;4.93;;;5.70;99.90;;;;;;5075254;28;20035;-63
2022/02/21 02:44:18;;;;;;;28.98;7.35;;;5.60;99.90;;;;;;5112050;28;20118;-53
2022/02/21 02:46:44;;;;;;;14.63;3.55;;;5.60;99.90;;;;;;5110030;28;20039;-62
2022/02/21 02:49:10;;;;;;;19.85;5.35;;;5.60;99.90;;;;;;5091696;28;20047;-60
2022/02/21 02:51:36;;;;;;;24.83;5.65;;;5.60;99.90;;;;;;5087731;28;20036;-67
2022/02/21 02:54:04;;;;;;;26.42;6.72;;;5.50;99.90;;;;;;5111341;28;20040;-55
2022/02/21 02:56:30;;;;;;;12.70;3.13;;;5.50;99.90;;;;;;5110549;28;20481;-55
2022/02/21 02:58:55;;;;;;;18.60;4.35;;;5.40;99.90;;;;;;5086373;28;20048;-60
2022/02/21 03:01:21;;;;;;;32.35;6.68;;;5.40;99.90;;;;;;5080296;28;20044;-56
2022/02/21 03:03:47;;;;;;;30.88;7.75;;;5.30;99.90;;;;;;5108615;28;20661;-57
2022/02/21 03:06:13;;;;;;;15.27;2.58;;;5.20;99.90;;;;;;5111136;28;20571;-61
2022/02/21 03:08:38;;;;;;;11.65;2.75;;;5.20;99.90;;;;;;5095229;28;20043;-66
2022/02/21 03:11:04;;;;;;;32.65;5.57;;;5.30;99.90;;;;;;5110341;28;20515;-60
2022/02/21 03:13:31;;;;;;;11.23;2.72;;;5.40;99.90;;;;;;5110012;28;20097;-64
2022/02/21 03:15:56;;;;;;;32.17;7.28;;;5.30;99.90;;;;;;5092274;28;20036;-58
2022/02/21 03:18:22;;;;;;;24.77;5.05;;;5.30;99.90;;;;;;5091890;28;20050;-56
2022/02/21 03:20:48;;;;;;;33.83;6.03;;;5.10;99.90;;;;;;5076438;28;20054;-69
2022/02/21 03:23:16;;;;;;;38.42;7.80;;;5.10;99.90;;;;;;5092381;28;20047;-56
2022/02/21 03:25:42;;;;;;;21.42;3.90;;;4.90;99.90;;;;;;5084705;28;20386;-60
2022/02/21 03:28:08;;;;;;;28.65;5.63;;;4.80;99.90;;;;;;5092036;28;20101;-60
2022/02/21 03:30:34;;;;;;;17.67;4.15;;;4.90;99.90;;;;;;5080403;28;20048;-59
2022/02/21 03:33:01;;;;;;;11.82;2.63;;;4.90;99.90;;;;;;5071854;28;20885;-67
2022/02/21 03:35:28;;;;;;;25.85;5.97;;;5.00;99.90;;;;;;5099521;28;20600;-57
2022/02/21 03:37:54;;;;;;;39.00;7.22;;;5.10;99.90;;;;;;5091468;28;20442;-62
2022/02/21 03:40:19;;;;;;;27.02;6.20;;;5.10;99.90;;;;;;5089343;28;20090;-65
2022/02/21 03:42:45;;;;;;;41.22;8.48;;;5.00;99.90;;;;;;5096624;28;20063;-59
2022/02/21 03:45:12;;;;;;;30.75;8.00;;;5.00;99.90;;;;;;5092275;28;20055;-61
2022/02/21 03:47:38;;;;;;;30.67;6.57;;;5.00;99.90;;;;;;5074335;28;20036;-57
2022/02/21 03:50:04;;;;;;;23.42;5.40;;;5.00;99.90;;;;;;5074599;28;20535;-63
2022/02/21 03:52:30;;;;;;;9.80;2.63;;;5.00;99.90;;;;;;5083533;28;20046;-61
2022/02/21 03:54:56;;;;;;;12.35;2.40;;;5.00;99.90;;;;;;5091503;28;20044;-63
2022/02/21 03:57:22;;;;;;;31.75;5.78;;;5.00;99.90;;;;;;5110181;28;20047;-57
2022/02/21 03:59:49;;;;;;;17.25;3.30;;;5.00;99.90;;;;;;5090718;28;20396;-65
2022/02/21 04:02:15;;;;;;;34.45;7.78;;;5.10;99.90;;;;;;5083251;28;20051;-61
2022/02/21 04:04:42;;;;;;;18.42;4.00;;;5.00;99.90;;;;;;5090554;28;20524;-68
2022/02/21 04:07:09;;;;;;;28.25;4.63;;;5.00;99.90;;;;;;5091957;28;20051;-61
2022/02/21 04:09:35;;;;;;;38.33;8.85;;;5.00;99.90;;;;;;5090426;28;20047;-61
2022/02/21 04:12:01;;;;;;;32.25;7.93;;;5.00;99.90;;;;;;5087431;28;20040;-63
2022/02/21 04:14:27;;;;;;;4.05;1.75;;;5.00;99.90;;;;;;5071612;28;20043;-58
2022/02/21 04:16:52;;;;;;;15.07;3.10;;;4.90;99.90;;;;;;5090993;28;20039;-62
2022/02/21 04:19:18;;;;;;;13.80;2.85;;;5.00;99.90;;;;;;5091660;28;20043;-56
2022/02/21 04:21:44;;;;;;;21.65;4.85;;;4.90;99.90;;;;;;5097344;28;20402;-59
2022/02/21 04:24:13;;;;;;;14.50;3.35;;;4.80;99.90;;;;;;5092114;28;20055;-60
2022/02/21 04:26:40;;;;;;;16.87;2.40;;;4.70;99.90;;;;;;5108957;28;20039;-61
2022/02/21 04:29:05;;;;;;;17.75;2.72;;;4.80;99.90;;;;;;5087637;28;20052;-58
2022/02/21 04:31:31;;;;;;;30.63;7.13;;;4.90;99.90;;;;;;5083397;28;20075;-61
2022/02/21 04:33:57;;;;;;;36.83;6.22;;;4.80;99.90;;;;;;5078793;28;20123;-59
2022/02/21 04:36:22;;;;;;;8.60;2.80;;;4.80;99.90;;;;;;5070775;28;20094;-58
2022/02/21 04:38:48;;;;;;;20.27;2.90;;;4.80;99.90;;;;;;5085351;28;20039;-65
2022/02/21 04:41:14;;;;;;;13.13;1.38;;;4.80;99.90;;;;;;5087617;28;20048;-57
2022/02/21 04:43:40;;;;;;;18.40;2.67;;;4.80;99.90;;;;;;5074657;28;20047;-61
2022/02/21 04:46:07;;;;;;;15.35;3.35;;;4.80;99.90;;;;;;5084536;28;20036;-57
2022/02/21 04:48:33;;;;;;;20.10;4.28;;;4.80;99.90;;;;;;5081485;28;20051;-59
2022/02/21 04:50:59;;;;;;;16.05;3.38;;;4.70;99.90;;;;;;5074633;28;20717;-64
2022/02/21 04:53:25;;;;;;;11.15;2.30;;;4.70;99.90;;;;;;5059765;28;20067;-57
2022/02/21 04:55:51;;;;;;;11.75;2.42;;;4.80;99.90;;;;;;5054551;28;20079;-60
2022/02/21 04:58:17;;;;;;;14.30;4.07;;;4.80;99.90;;;;;;5067057;28;20033;-57
2022/02/21 05:00:42;;;;;;;7.05;1.73;;;4.70;99.90;;;;;;5067292;28;20075;-62
2022/02/21 05:03:08;;;;;;;7.63;1.88;;;4.90;99.90;;;;;;5065966;28;20044;-62
2022/02/21 05:05:35;;;;;;;16.27;3.08;;;4.80;99.90;;;;;;5065649;28;20478;-57
2022/02/21 05:08:01;;;;;;;20.08;3.78;;;4.80;99.90;;;;;;5065907;28;20068;-58
2022/02/21 05:10:26;;;;;;;12.23;2.28;;;4.80;99.90;;;;;;5080259;28;20401;-57
2022/02/21 05:12:52;;;;;;;16.80;2.58;;;4.80;99.90;;;;;;5086460;28;20101;-62
2022/02/21 05:15:18;;;;;;;12.02;2.63;;;4.80;99.90;;;;;;5085607;28;20485;-58
2022/02/21 05:17:44;;;;;;;14.18;2.47;;;4.90;99.90;;;;;;5086154;28;20469;-68
2022/02/21 05:20:11;;;;;;;16.52;3.33;;;5.00;99.90;;;;;;5086644;28;20044;-62
2022/02/21 05:22:37;;;;;;;10.73;2.28;;;5.00;99.90;;;;;;5085933;28;20474;-59
2022/02/21 05:25:04;;;;;;;19.98;4.75;;;5.00;99.90;;;;;;5078747;28;20048;-58
2022/02/21 05:27:34;;;;;;;4.40;1.92;;;5.00;99.90;;;;;;5079944;28;20082;-58
2022/02/21 05:30:00;;;;;;;19.60;2.92;;;5.00;99.90;;;;;;5086614;28;20056;-63
2022/02/21 05:32:25;;;;;;;9.55;2.25;;;5.00;99.90;;;;;;5085058;28;20185;-57
2022/02/21 05:34:51;;;;;;;17.50;3.03;;;4.90;99.90;;;;;;5083935;28;20032;-59
2022/02/21 05:37:23;;;;;;;19.58;2.83;;;5.00;99.90;;;;;;5070172;28;20516;-61
2022/02/21 05:39:49;;;;;;;13.98;3.72;;;5.10;99.90;;;;;;5071416;28;20040;-59
2022/02/21 05:42:15;;;;;;;5.10;1.60;;;5.00;99.90;;;;;;5074931;28;20044;-58
2022/02/21 05:44:41;;;;;;;14.15;3.08;;;5.00;99.90;;;;;;5081176;28;20470;-58
2022/02/21 05:47:07;;;;;;;11.38;2.33;;;4.90;99.90;;;;;;5086036;28;20071;-58
2022/02/21 05:49:33;;;;;;;9.27;2.35;;;4.90;99.90;;;;;;5086219;28;20382;-59
2022/02/21 05:52:00;;;;;;;12.73;3.47;;;4.90;99.90;;;;;;5085229;28;20042;-63
2022/02/21 05:54:26;;;;;;;9.50;2.00;;;5.00;99.90;;;;;;5086528;28;20044;-58
2022/02/21 05:56:52;;;;;;;5.43;1.70;;;5.00;99.90;;;;;;5072222;28;20087;-64
2022/02/21 05:59:18;;;;;;;8.07;1.88;;;5.00;99.90;;;;;;5086224;28;20055;-60
2022/02/21 06:01:44;;;;;;;8.40;1.70;;;5.10;99.90;;;;;;5079736;28;20052;-62
2022/02/21 06:04:10;;;;;;;10.30;1.70;;;5.00;99.90;;;;;;5086185;28;20086;-59
2022/02/21 06:06:36;;;;;;;11.10;2.10;;;5.00;99.90;;;;;;5076973;28;20068;-62
2022/02/21 06:09:03;;;;;;;11.00;2.70;;;5.00;99.90;;;;;;5085606;28;20067;-59
2022/02/21 06:11:29;;;;;;;7.90;2.05;;;5.00;99.90;;;;;;5086263;28;20040;-61
2022/02/21 06:13:55;;;;;;;10.02;2.15;;;5.00;99.90;;;;;;5085770;28;20032;-58
2022/02/21 06:16:21;;;;;;;10.98;1.80;;;5.00;99.90;;;;;;5083459;28;20039;-62
2022/02/21 06:18:46;;;;;;;5.97;1.52;;;5.00;99.90;;;;;;5061096;28;20036;-64
2022/02/21 06:21:12;;;;;;;12.40;2.38;;;4.90;99.90;;;;;;5083188;28;20040;-62
2022/02/21 06:23:38;;;;;;;19.23;3.03;;;4.80;99.90;;;;;;5057475;28;20487;-57
2022/02/21 06:26:04;;;;;;;8.93;1.88;;;4.70;99.90;;;;;;5077295;28;20489;-68
2022/02/21 06:28:30;;;;;;;6.22;1.52;;;4.70;99.90;;;;;;5066192;28;20063;-58
2022/02/21 06:30:56;;;;;;;4.95;1.85;;;4.70;99.90;;;;;;5070256;28;20052;-63
2022/02/21 06:33:22;;;;;;;15.13;2.53;;;4.70;99.90;;;;;;5061646;28;20416;-60
2022/02/21 06:35:48;;;;;;;5.78;1.75;;;4.70;99.90;;;;;;5051909;28;20513;-67
2022/02/21 06:38:13;;;;;;;10.05;1.98;;;4.80;99.90;;;;;;5064126;28;20079;-58
2022/02/21 06:40:39;;;;;;;13.55;3.20;;;4.80;99.90;;;;;;5058658;28;20377;-58
2022/02/21 06:43:05;;;;;;;14.00;2.63;;;4.90;99.90;;;;;;5056509;28;20044;-58
2022/02/21 06:45:30;;;;;;;20.92;3.72;;;5.00;99.90;;;;;;5064382;28;20040;-59
2022/02/21 06:47:57;;;;;;;11.65;1.85;;;5.20;99.90;;;;;;5063162;28;20036;-61
2022/02/21 06:50:24;;;;;;;14.25;2.53;;;5.10;99.90;;;;;;5057893;28;20097;-60
2022/02/21 06:52:50;;;;;;;11.02;2.55;;;5.10;99.90;;;;;;5079230;28;20579;-65
2022/02/21 06:55:16;;;;;;;6.18;1.55;;;5.10;99.90;;;;;;5079654;28;20119;-64
2022/02/21 06:57:44;;;;;;;19.08;4.00;;;5.20;99.90;;;;;;5081543;28;20044;-59
2022/02/21 07:00:10;;;;;;;11.38;1.95;;;5.10;99.90;;;;;;5073041;28;20039;-61
2022/02/21 07:02:36;;;;;;;7.88;2.28;;;5.20;99.90;;;;;;5076273;28;20059;-61
2022/02/21 07:05:03;;;;;;;7.50;1.75;;;5.10;99.90;;;;;;5082632;28;20502;-69
2022/02/21 07:07:29;;;;;;;11.73;2.38;;;5.20;99.90;;;;;;5084443;28;20439;-58
2022/02/21 07:09:55;;;;;;;14.00;1.70;;;5.20;99.90;;;;;;5064020;28;20598;-59
2022/02/21 07:12:20;;;;;;;6.47;2.35;;;5.10;99.90;;;;;;5079354;28;20046;-59
2022/02/21 07:14:47;;;;;;;9.32;2.60;;;5.20;99.90;;;;;;5068996;28;20040;-59
2022/02/21 07:17:13;;;;;;;8.18;1.90;;;5.20;99.90;;;;;;5057116;28;20051;-62
2022/02/21 07:19:39;;;;;;;12.93;2.08;;;5.20;99.90;;;;;;5066909;28;20074;-60
2022/02/21 07:22:05;;;;;;;17.50;2.25;;;5.10;99.90;;;;;;5082023;28;20036;-59
2022/02/21 07:24:31;;;;;;;7.13;2.08;;;5.10;99.90;;;;;;5069782;28;20037;-58
2022/02/21 07:26:57;;;;;;;7.80;1.63;;;5.10;99.90;;;;;;5066012;28;20055;-65
2022/02/21 07:29:24;;;;;;;7.15;1.52;;;5.10;99.90;;;;;;5062577;28;20059;-61
2022/02/21 07:31:53;;;;;;;10.80;1.85;;;5.10;99.90;;;;;;5066531;28;20080;-68
2022/02/21 07:34:18;;;;;;;13.00;1.98;;;5.10;99.90;;;;;;5074132;28;20040;-63
2022/02/21 07:36:44;;;;;;;8.50;1.73;;;5.10;99.90;;;;;;5088263;28;20044;-60
2022/02/21 07:39:10;;;;;;;8.63;1.63;;;5.20;99.90;;;;;;5099801;28;20079;-66
2022/02/21 07:41:39;;;;;;;6.65;1.48;;;5.20;99.90;;;;;;5071614;28;20054;-61
2022/02/21 07:44:05;;;;;;;7.10;1.73;;;5.20;99.90;;;;;;5069912;28;20044;-62
2022/02/21 07:46:31;;;;;;;9.57;1.65;;;5.20;99.90;;;;;;5082956;28;20042;-59
2022/02/21 07:48:57;;;;;;;15.95;2.55;;;5.20;99.90;;;;;;5069744;28;20104;-63
2022/02/21 07:51:23;;;;;;;15.80;2.35;;;5.10;99.90;;;;;;5068664;28;20405;-59
2022/02/21 07:53:49;;;;;;;9.23;1.60;;;5.10;99.90;;;;;;5069524;28;20040;-63
2022/02/21 07:56:15;;;;;;;11.75;2.22;;;5.20;99.90;;;;;;5070026;28;20132;-58
2022/02/21 07:58:40;;;;;;;10.55;1.67;;;5.20;99.90;;;;;;5070013;28;20434;-59
2022/02/21 08:01:06;;;;;;;18.52;3.30;;;5.20;99.90;;;;;;5067490;28;20131;-65
2022/02/21 08:03:35;;;;;;;12.23;2.28;;;5.20;99.90;;;;;;5077745;28;20510;-66
2022/02/21 08:06:00;;;;;;;3.45;1.40;;;5.20;99.90;;;;;;5069610;28;20063;-65
2022/02/21 08:08:26;;;;;;;28.08;4.25;;;5.10;99.90;;;;;;5077762;28;20390;-60
2022/02/21 08:10:52;;;;;;;16.33;2.30;;;5.10;99.90;;;;;;5102958;28;20039;-61
2022/02/21 08:13:17;;;;;;;21.05;3.30;;;5.10;99.90;;;;;;5073300;28;20035;-61
2022/02/21 08:15:43;;;;;;;23.10;2.15;;;5.10;99.90;;;;;;5089245;28;20616;-58
2022/02/21 08:18:09;;;;;;;19.02;2.80;;;5.10;99.90;;;;;;5089535;28;20492;-60
2022/02/21 08:20:34;;;;;;;12.50;2.58;;;5.10;99.90;;;;;;5080243;28;20032;-62
2022/02/21 08:23:00;;;;;;;15.07;2.33;;;5.20;99.90;;;;;;5089034;28;20039;-58
2022/02/21 08:25:26;;;;;;;23.67;2.53;;;5.20;99.90;;;;;;5089953;28;20403;-58
2022/02/21 08:27:52;;;;;;;9.88;1.35;;;5.20;99.90;;;;;;5085406;28;20052;-64
2022/02/21 08:30:21;;;;;;;16.45;2.72;;;5.20;99.90;;;;;;5058497;28;20049;-62
2022/02/21 08:32:47;;;;;;;17.40;2.28;;;5.20;99.90;;;;;;5066672;28;20146;-63
2022/02/21 08:35:13;;;;;;;20.42;2.67;;;5.20;99.90;;;;;;5086144;28;20055;-66
2022/02/21 08:37:39;;;;;;;4.10;0.80;;;5.20;99.90;;;;;;5086201;28;20048;-59
2022/02/21 08:40:08;;;;;;;13.20;2.47;;;5.10;99.90;;;;;;5080384;28;20047;-62
2022/02/21 08:42:34;;;;;;;18.30;3.20;;;5.10;99.90;;;;;;5070250;28;20079;-58
2022/02/21 08:45:00;;;;;;;11.13;2.45;;;5.10;99.90;;;;;;5085188;28;20047;-67
2022/02/21 08:47:25;;;;;;;9.27;2.22;;;5.10;99.90;;;;;;5087317;28;20070;-62
2022/02/21 08:49:51;;;;;;;17.48;2.42;;;5.00;99.90;;;;;;5085313;28;20123;-66
2022/02/21 08:52:17;;;;;;;10.10;1.40;;;4.90;99.90;;;;;;5067068;28;20070;-58
2022/02/21 08:54:44;;;;;;;11.35;2.97;;;4.80;99.90;;;;;;5085937;28;20048;-60
2022/02/21 08:57:10;;;;;;;22.52;2.22;;;4.70;99.90;;;;;;5085250;28;20040;-58
2022/02/21 08:59:37;;;;;;;5.30;1.77;;;4.60;99.90;;;;;;5085266;28;20036;-60
2022/02/21 09:02:03;;;;;;;18.48;2.38;;;4.60;99.90;;;;;;5076585;28;20049;-64
2022/02/21 09:04:28;;;;;;;23.42;2.60;;;4.40;99.90;;;;;;5060444;28;20494;-65
2022/02/21 09:06:54;;;;;;;7.07;1.73;;;4.30;99.90;;;;;;5060918;28;20077;-59
2022/02/21 09:09:22;;;;;;;8.70;1.25;;;4.20;99.90;;;;;;5075884;28;20495;-65
2022/02/21 09:11:51;;;;;;;21.42;2.92;;;4.10;99.90;;;;;;5063839;28;20054;-69
2022/02/21 09:14:19;;;;;;;11.02;2.38;;;4.10;99.90;;;;;;5065051;28;20106;-61
2022/02/21 09:16:45;;;;;;;7.63;1.25;;;4.00;99.90;;;;;;5064932;28;20044;-61
2022/02/21 09:19:11;;;;;;;7.50;0.93;;;3.80;99.90;;;;;;5064556;28;20048;-60
2022/02/21 09:21:37;;;;;;;14.85;1.50;;;3.90;99.90;;;;;;5061966;28;20376;-60
2022/02/21 09:24:02;;;;;;;12.25;2.13;;;3.80;99.90;;;;;;5059673;28;20053;-60
2022/02/21 09:26:29;;;;;;;2.90;0.68;;;3.70;99.90;;;;;;5062048;28;20044;-67
2022/02/21 09:28:57;;;;;;;4.47;1.40;;;3.50;99.90;;;;;;5070631;28;20044;-59
2022/02/21 09:31:23;;;;;;;6.43;1.17;;;3.40;99.90;;;;;;5077044;28;20102;-64
2022/02/21 09:33:55;;;;;;;5.28;0.85;;;3.30;99.90;;;;;;5077369;28;20125;-60
2022/02/21 09:36:21;;;;;;;10.30;2.20;;;3.30;99.90;;;;;;5064632;28;20037;-64
2022/02/21 09:38:47;;;;;;;5.65;1.13;;;3.20;99.90;;;;;;5084380;28;20048;-63
2022/02/21 09:41:13;;;;;;;0.68;0.40;;;3.20;99.90;;;;;;5068732;28;20060;-62
2022/02/21 09:43:39;;;;;;;0.50;0.50;;;3.00;99.90;;;;;;5057670;28;20051;-62
2022/02/21 09:46:11;;;;;;;1.30;0.52;;;3.00;99.90;;;;;;5024368;28;20037;-61
2022/02/21 09:48:39;;;;;;;3.15;0.60;;;2.90;99.90;;;;;;5050169;28;20487;-63
2022/02/21 09:51:08;;;;;;;1.73;0.30;;;2.90;99.90;;;;;;5083461;28;20563;-65
2022/02/21 09:53:36;;;;;;;5.38;0.20;;;2.80;99.90;;;;;;5081180;28;20047;-59
2022/02/21 09:56:03;;;;;;;2.17;0.57;;;2.80;99.90;;;;;;5083668;28;20051;-62
2022/02/21 09:58:29;;;;;;;1.25;0.40;;;2.70;99.90;;;;;;5078662;28;20127;-66
2022/02/21 10:00:55;;;;;;;3.05;0.30;;;2.70;99.90;;;;;;5080303;28;20131;-60
2022/02/21 10:03:43;;;;;;;4.68;1.05;;;2.70;99.90;;;;;;5082567;28;20048;-69
2022/02/21 10:06:14;;;;;;;2.85;0.60;;;2.70;99.90;;;;;;5081533;28;20050;-61
2022/02/21 10:09:01;;;;;;;1.05;0.30;;;2.80;99.90;;;;;;5074669;28;20044;-70
2022/02/21 10:11:30;;;;;;;1.55;0.38;;;2.80;99.90;;;;;;5044183;28;20052;-66
2022/02/21 10:13:59;;;;;;;3.83;0.65;;;2.80;99.90;;;;;;5073024;28;20055;-67
2022/02/21 10:16:36;;;;;;;1.27;0.47;;;2.80;99.90;;;;;;5080067;28;20047;-60
2022/02/21 10:19:15;;;;;;;4.47;0.40;;;2.80;99.90;;;;;;5071985;28;20119;-63
2022/02/21 10:22:02;;;;;;;1.17;0.47;;;2.70;99.90;;;;;;5074832;28;20182;-61
2022/02/21 10:24:30;;;;;;;1.85;0.60;;;2.70;99.90;;;;;;5071808;28;20036;-64
2022/02/21 10:27:04;;;;;;;0.57;0.35;;;2.70;99.90;;;;;;5081132;28;20040;-65
2022/02/21 10:29:30;;;;;;;1.17;0.20;;;2.70;99.90;;;;;;5057686;28;20080;-60
2022/02/21 10:32:08;;;;;;;1.55;0.40;;;2.70;99.90;;;;;;5044358;28;20162;-69
2022/02/21 10:34:34;;;;;;;0.05;0.05;;;2.70;99.90;;;;;;5056532;28;20410;-65
2022/02/21 10:37:00;;;;;;;0.20;0.20;;;2.80;99.90;;;;;;5061438;28;20079;-65
2022/02/21 10:39:26;;;;;;;0.30;0.25;;;2.80;99.90;;;;;;5083096;28;20098;-70
2022/02/21 10:41:54;;;;;;;0.10;0.10;;;2.80;99.90;;;;;;5066901;28;20048;-61
2022/02/21 10:44:23;;;;;;;3.85;0.17;;;2.80;99.90;;;;;;5066944;28;20447;-70
2022/02/21 10:47:12;;;;;;;0.00;0.00;;;2.80;99.90;;;;;;5043499;28;20125;-64
2022/02/21 10:49:49;;;;;;;0.28;0.10;;;2.70;99.90;;;;;;5063710;28;20050;-63
2022/02/21 10:52:18;;;;;;;0.10;0.10;;;2.70;99.90;;;;;;5065856;28;20486;-61
2022/02/21 10:54:45;;;;;;;0.10;0.10;;;2.60;99.90;;;;;;5063995;28;20059;-63
2022/02/21 10:57:17;;;;;;;0.22;0.10;;;2.50;99.90;;;;;;5067639;28;20477;-61
2022/02/21 10:59:43;;;;;;;0.32;0.10;;;2.50;99.90;;;;;;5035326;28;20079;-62
2022/02/21 11:02:10;;;;;;;0.20;0.20;;;2.40;99.90;;;;;;5051007;28;20047;-67
2022/02/21 11:04:38;;;;;;;2.53;0.17;;;2.30;99.90;;;;;;5054613;28;20048;-61
2022/02/21 11:07:05;;;;;;;0.00;0.00;;;2.20;99.90;;;;;;5054749;28;20587;-68
2022/02/21 11:09:32;;;;;;;0.00;0.00;;;2.10;99.90;;;;;;5067779;28;20075;-59
2022/02/21 11:12:01;;;;;;;0.00;0.00;;;2.00;99.90;;;;;;5066012;28;20043;-60
2022/02/21 11:14:29;;;;;;;0.15;0.13;;;2.00;99.90;;;;;;5064382;28;20433;-61
2022/02/21 11:17:01;;;;;;;0.95;0.30;;;1.90;99.90;;;;;;5067516;28;20036;-60
2022/02/21 11:19:28;;;;;;;0.05;0.05;;;1.80;99.90;;;;;;5054416;28;20409;-70
2022/02/21 11:21:55;;;;;;;5.18;0.20;;;1.80;99.90;;;;;;5084482;28;20489;-59
2022/02/21 11:24:35;;;;;;;1.27;0.20;;;1.80;99.90;;;;;;5064049;28;20504;-65
2022/02/21 11:27:16;;;;;;;0.43;0.20;;;1.70;99.90;;;;;;5052685;28;20041;-66
2022/02/21 11:30:10;;;;;;;1.30;0.50;;;1.70;99.90;;;;;;5083776;28;20529;-62
2022/02/21 11:32:36;;;;;;;0.75;0.40;;;1.70;99.90;;;;;;5079644;28;20036;-70
2022/02/21 11:35:17;;;;;;;1.10;0.50;;;1.70;99.90;;;;;;5087594;28;20071;-62
2022/02/21 11:37:44;;;;;;;0.32;0.17;;;1.70;99.90;;;;;;5076777;28;20063;-62
2022/02/21 11:40:11;;;;;;;2.10;0.20;;;1.80;99.90;;;;;;5081788;28;20047;-58
2022/02/21 11:42:38;;;;;;;0.35;0.20;;;1.80;99.90;;;;;;5086250;28;20840;-63
2022/02/21 11:45:22;;;;;;;0.55;0.20;;;1.80;99.90;;;;;;5082412;28;20055;-64
2022/02/21 11:47:51;;;;;;;0.35;0.17;;;1.90;99.90;;;;;;5069455;28;20434;-65
2022/02/21 11:50:19;;;;;;;0.50;0.13;;;2.10;99.90;;;;;;5068441;28;20198;-64
2022/02/21 11:52:50;;;;;;;0.20;0.20;;;2.20;99.90;;;;;;5065781;28;20084;-63
2022/02/21 11:55:38;;;;;;;1.02;0.47;;;2.30;99.90;;;;;;5068224;28;20065;-65
2022/02/21 11:58:13;;;;;;;1.13;0.20;;;2.40;99.90;;;;;;5086985;28;20526;-63
2022/02/21 12:00:39;;;;;;;0.40;0.38;;;2.40;99.90;;;;;;5069871;28;20051;-61
2022/02/21 12:03:25;;;;;;;0.75;0.73;;;2.40;99.90;;;;;;5070700;28;20076;-65
2022/02/21 12:05:57;;;;;;;1.77;1.05;;;2.40;99.90;;;;;;5065394;28;20225;-59
2022/02/21 12:08:29;;;;;;;2.05;0.68;;;2.40;99.90;;;;;;5084744;28;20043;-59
2022/02/21 12:11:03;;;;;;;0.80;0.57;;;2.30;99.90;;;;;;5105888;28;20393;-58
2022/02/21 12:13:31;;;;;;;2.60;0.60;;;2.30;99.90;;;;;;5090227;28;20047;-60
2022/02/21 12:16:08;;;;;;;0.13;0.13;;;2.30;99.90;;;;;;5074584;28;20518;-61
2022/02/21 12:18:38;;;;;;;0.93;0.80;;;2.40;99.90;;;;;;5090257;28;20118;-63
2022/02/21 12:21:14;;;;;;;1.38;0.55;;;2.40;99.90;;;;;;5085518;28;20040;-64
2022/02/21 12:23:55;;;;;;;1.02;0.80;;;2.50;99.90;;;;;;5080275;28;20047;-70
2022/02/21 12:26:29;;;;;;;6.30;1.25;;;2.60;99.90;;;;;;5074078;28;20453;-61
2022/02/21 12:29:10;;;;;;;3.90;1.38;;;2.70;99.90;;;;;;5060176;28;20048;-63
2022/02/21 12:31:38;;;;;;;4.10;1.50;;;2.90;99.90;;;;;;5068519;28;20845;-67
2022/02/21 12:34:04;;;;;;;8.75;2.00;;;3.00;99.90;;;;;;5068396;28;20052;-65
2022/02/21 12:36:58;;;;;;;10.20;1.58;;;3.20;99.90;;;;;;5063896;28;20510;-63
2022/02/21 12:39:26;;;;;;;3.17;1.15;;;3.40;99.90;;;;;;5061770;28;20138;-70
2022/02/21 12:41:53;;;;;;;9.40;1.40;;;3.60;99.90;;;;;;5068033;28;20056;-62
2022/02/21 12:44:20;;;;;;;7.75;1.27;;;3.80;99.90;;;;;;5069655;28;20075;-59
2022/02/21 12:46:54;;;;;;;5.13;0.95;;;4.00;99.90;;;;;;5048402;28;20453;-65
2022/02/21 12:49:26;;;;;;;15.85;1.83;;;4.10;99.90;;;;;;5064801;28;20493;-68
2022/02/21 12:51:55;;;;;;;13.65;1.92;;;4.20;99.90;;;;;;5073438;28;20047;-63